Аэропорт: Братск. Братск

ICAO: UIBB

METAR:
2021-07-28 14:30:00
UIBB 281430Z 32002MPS 9999 NSC 22/12 Q1002 R30/CLRD60 NOSIG RMK QFE709/0946
METAR:
2021-07-28 11:00:00
TAF UIBB 281100Z 2812/2912 22003G08MPS 9999 SCT030CB TEMPO 2903/2912 VRB10MPS -TSRA